sensor_id;sensor_type;location;lat;lon;timestamp;temperature;humidity
75985;DHT22;65033;44.660;37.758;2022-12-17T00:01:10;27.50;45.30
75985;DHT22;65033;44.660;37.758;2022-12-17T00:02:32;27.52;45.29
75985;DHT22;65033;44.660;37.758;2022-12-17T00:03:54;27.51;45.28
75985;DHT22;65033;44.660;37.758;2022-12-17T00:05:17;27.52;45.24
75985;DHT22;65033;44.660;37.758;2022-12-17T00:06:39;27.51;45.21
75985;DHT22;65033;44.660;37.758;2022-12-17T00:08:01;27.52;45.21
75985;DHT22;65033;44.660;37.758;2022-12-17T00:09:22;27.52;45.16
75985;DHT22;65033;44.660;37.758;2022-12-17T00:10:45;27.51;45.12
75985;DHT22;65033;44.660;37.758;2022-12-17T00:12:06;27.52;45.12
75985;DHT22;65033;44.660;37.758;2022-12-17T00:13:28;27.52;45.07
75985;DHT22;65033;44.660;37.758;2022-12-17T00:14:50;27.51;45.03
75985;DHT22;65033;44.660;37.758;2022-12-17T00:16:12;27.52;45.06
75985;DHT22;65033;44.660;37.758;2022-12-17T00:17:34;27.51;44.96
75985;DHT22;65033;44.660;37.758;2022-12-17T00:18:56;27.51;44.94
75985;DHT22;65033;44.660;37.758;2022-12-17T00:20:19;27.49;44.96
75985;DHT22;65033;44.660;37.758;2022-12-17T00:21:41;27.50;44.96
75985;DHT22;65033;44.660;37.758;2022-12-17T00:23:03;27.49;44.96
75985;DHT22;65033;44.660;37.758;2022-12-17T00:24:25;27.50;44.94
75985;DHT22;65033;44.660;37.758;2022-12-17T00:25:49;27.51;44.88
75985;DHT22;65033;44.660;37.758;2022-12-17T00:27:11;27.50;44.87
75985;DHT22;65033;44.660;37.758;2022-12-17T00:28:33;27.50;44.85
75985;DHT22;65033;44.660;37.758;2022-12-17T00:29:54;27.50;44.83
75985;DHT22;65033;44.660;37.758;2022-12-17T00:31:16;27.51;44.81
75985;DHT22;65033;44.660;37.758;2022-12-17T00:32:38;27.51;44.80
75985;DHT22;65033;44.660;37.758;2022-12-17T00:34:00;27.50;44.77
75985;DHT22;65033;44.660;37.758;2022-12-17T00:35:23;27.50;44.74
75985;DHT22;65033;44.660;37.758;2022-12-17T00:36:46;27.51;44.73
75985;DHT22;65033;44.660;37.758;2022-12-17T00:38:13;27.51;44.67
75985;DHT22;65033;44.660;37.758;2022-12-17T00:39:35;27.51;44.69
75985;DHT22;65033;44.660;37.758;2022-12-17T00:41:03;27.50;44.66
75985;DHT22;65033;44.660;37.758;2022-12-17T00:42:25;27.49;44.62
75985;DHT22;65033;44.660;37.758;2022-12-17T00:43:47;27.50;44.58
75985;DHT22;65033;44.660;37.758;2022-12-17T00:45:10;27.50;44.61
75985;DHT22;65033;44.660;37.758;2022-12-17T00:46:32;27.50;44.59
75985;DHT22;65033;44.660;37.758;2022-12-17T00:47:54;27.49;44.60
75985;DHT22;65033;44.660;37.758;2022-12-17T00:49:16;27.49;44.58
75985;DHT22;65033;44.660;37.758;2022-12-17T00:50:39;27.47;44.55
75985;DHT22;65033;44.660;37.758;2022-12-17T00:52:00;27.49;44.53
75985;DHT22;65033;44.660;37.758;2022-12-17T00:53:22;27.50;44.54
75985;DHT22;65033;44.660;37.758;2022-12-17T00:54:44;27.49;44.51
75985;DHT22;65033;44.660;37.758;2022-12-17T00:56:06;27.47;44.50
75985;DHT22;65033;44.660;37.758;2022-12-17T00:57:28;27.49;44.48
75985;DHT22;65033;44.660;37.758;2022-12-17T00:58:50;27.49;44.44
75985;DHT22;65033;44.660;37.758;2022-12-17T01:00:12;27.49;44.42
75985;DHT22;65033;44.660;37.758;2022-12-17T01:01:35;27.49;44.40
75985;DHT22;65033;44.660;37.758;2022-12-17T01:03:04;27.50;44.37
75985;DHT22;65033;44.660;37.758;2022-12-17T01:04:26;27.50;44.35
75985;DHT22;65033;44.660;37.758;2022-12-17T01:05:49;27.47;44.29
75985;DHT22;65033;44.660;37.758;2022-12-17T01:07:11;27.49;44.25
75985;DHT22;65033;44.660;37.758;2022-12-17T01:08:32;27.49;44.32
75985;DHT22;65033;44.660;37.758;2022-12-17T01:09:54;27.47;44.24
75985;DHT22;65033;44.660;37.758;2022-12-17T01:11:16;27.46;44.20
75985;DHT22;65033;44.660;37.758;2022-12-17T01:12:38;27.47;44.23
75985;DHT22;65033;44.660;37.758;2022-12-17T01:14:00;27.49;44.24
75985;DHT22;65033;44.660;37.758;2022-12-17T01:15:21;27.46;44.22
75985;DHT22;65033;44.660;37.758;2022-12-17T01:16:43;27.49;44.22
75985;DHT22;65033;44.660;37.758;2022-12-17T01:18:05;27.47;44.19
75985;DHT22;65033;44.660;37.758;2022-12-17T01:19:27;27.47;44.18
75985;DHT22;65033;44.660;37.758;2022-12-17T01:20:56;27.47;44.16
75985;DHT22;65033;44.660;37.758;2022-12-17T01:22:18;27.46;44.16
75985;DHT22;65033;44.660;37.758;2022-12-17T01:23:41;27.46;44.14
75985;DHT22;65033;44.660;37.758;2022-12-17T01:25:19;27.49;44.09
75985;DHT22;65033;44.660;37.758;2022-12-17T01:26:41;27.47;44.08
75985;DHT22;65033;44.660;37.758;2022-12-17T01:28:03;27.47;44.07
75985;DHT22;65033;44.660;37.758;2022-12-17T01:29:25;27.46;44.03
75985;DHT22;65033;44.660;37.758;2022-12-17T01:30:47;27.46;44.02
75985;DHT22;65033;44.660;37.758;2022-12-17T01:32:09;27.46;44.00
75985;DHT22;65033;44.660;37.758;2022-12-17T01:33:30;27.45;43.96
75985;DHT22;65033;44.660;37.758;2022-12-17T01:34:54;27.46;43.98
75985;DHT22;65033;44.660;37.758;2022-12-17T01:36:17;27.45;43.94
75985;DHT22;65033;44.660;37.758;2022-12-17T01:37:38;27.45;43.94
75985;DHT22;65033;44.660;37.758;2022-12-17T01:39:04;27.47;43.90
75985;DHT22;65033;44.660;37.758;2022-12-17T01:40:26;27.47;43.91
75985;DHT22;65033;44.660;37.758;2022-12-17T01:41:48;27.47;43.88
75985;DHT22;65033;44.660;37.758;2022-12-17T01:43:11;27.47;43.84
75985;DHT22;65033;44.660;37.758;2022-12-17T01:44:46;27.47;43.83
75985;DHT22;65033;44.660;37.758;2022-12-17T01:46:09;27.47;43.84
75985;DHT22;65033;44.660;37.758;2022-12-17T01:47:34;27.46;43.81
75985;DHT22;65033;44.660;37.758;2022-12-17T01:48:58;27.47;43.80
75985;DHT22;65033;44.660;37.758;2022-12-17T01:50:20;27.46;43.79
75985;DHT22;65033;44.660;37.758;2022-12-17T01:51:45;27.46;43.80
75985;DHT22;65033;44.660;37.758;2022-12-17T01:53:07;27.45;43.77
75985;DHT22;65033;44.660;37.758;2022-12-17T01:54:30;27.46;43.75
75985;DHT22;65033;44.660;37.758;2022-12-17T01:55:52;27.44;43.76
75985;DHT22;65033;44.660;37.758;2022-12-17T01:57:14;27.45;43.72
75985;DHT22;65033;44.660;37.758;2022-12-17T01:58:36;27.44;43.68
75985;DHT22;65033;44.660;37.758;2022-12-17T02:00:03;27.45;43.66
75985;DHT22;65033;44.660;37.758;2022-12-17T02:01:25;27.45;43.64
75985;DHT22;65033;44.660;37.758;2022-12-17T02:02:48;27.46;43.64
75985;DHT22;65033;44.660;37.758;2022-12-17T02:04:10;27.44;43.61
75985;DHT22;65033;44.660;37.758;2022-12-17T02:05:37;27.46;43.59
75985;DHT22;65033;44.660;37.758;2022-12-17T02:07:17;27.44;43.59
75985;DHT22;65033;44.660;37.758;2022-12-17T02:08:45;27.46;43.57
75985;DHT22;65033;44.660;37.758;2022-12-17T02:10:19;27.44;43.55
75985;DHT22;65033;44.660;37.758;2022-12-17T02:11:51;27.45;43.51
75985;DHT22;65033;44.660;37.758;2022-12-17T02:13:18;27.45;43.52
75985;DHT22;65033;44.660;37.758;2022-12-17T02:14:44;27.45;43.49
75985;DHT22;65033;44.660;37.758;2022-12-17T02:16:11;27.45;43.45
75985;DHT22;65033;44.660;37.758;2022-12-17T02:17:40;27.45;43.46
75985;DHT22;65033;44.660;37.758;2022-12-17T02:19:09;27.44;43.41
75985;DHT22;65033;44.660;37.758;2022-12-17T02:20:38;27.46;43.40
75985;DHT22;65033;44.660;37.758;2022-12-17T02:22:07;27.45;43.37
75985;DHT22;65033;44.660;37.758;2022-12-17T02:23:51;27.44;43.35
75985;DHT22;65033;44.660;37.758;2022-12-17T02:25:21;27.44;43.34
75985;DHT22;65033;44.660;37.758;2022-12-17T02:26:50;27.43;43.34
75985;DHT22;65033;44.660;37.758;2022-12-17T02:28:13;27.43;43.35
75985;DHT22;65033;44.660;37.758;2022-12-17T02:29:37;27.43;43.33
75985;DHT22;65033;44.660;37.758;2022-12-17T02:31:01;27.43;43.34
75985;DHT22;65033;44.660;37.758;2022-12-17T02:32:25;27.42;43.32
75985;DHT22;65033;44.660;37.758;2022-12-17T02:33:47;27.43;43.32
75985;DHT22;65033;44.660;37.758;2022-12-17T02:35:13;27.43;43.28
75985;DHT22;65033;44.660;37.758;2022-12-17T02:36:49;27.43;43.26
75985;DHT22;65033;44.660;37.758;2022-12-17T02:38:19;27.43;43.22
75985;DHT22;65033;44.660;37.758;2022-12-17T02:39:42;27.44;43.20
75985;DHT22;65033;44.660;37.758;2022-12-17T02:41:06;27.43;43.20
75985;DHT22;65033;44.660;37.758;2022-12-17T02:42:30;27.44;43.17
75985;DHT22;65033;44.660;37.758;2022-12-17T02:43:53;27.44;43.16
75985;DHT22;65033;44.660;37.758;2022-12-17T02:45:18;27.42;43.15
75985;DHT22;65033;44.660;37.758;2022-12-17T02:46:41;27.43;43.15
75985;DHT22;65033;44.660;37.758;2022-12-17T02:48:05;27.42;43.10
75985;DHT22;65033;44.660;37.758;2022-12-17T02:49:27;27.43;43.10
75985;DHT22;65033;44.660;37.758;2022-12-17T02:50:50;27.42;43.10
75985;DHT22;65033;44.660;37.758;2022-12-17T02:52:12;27.43;43.08
75985;DHT22;65033;44.660;37.758;2022-12-17T02:53:42;27.42;43.03
75985;DHT22;65033;44.660;37.758;2022-12-17T02:55:05;27.42;43.03
75985;DHT22;65033;44.660;37.758;2022-12-17T02:56:27;27.42;43.02
75985;DHT22;65033;44.660;37.758;2022-12-17T02:57:50;27.43;43.00
75985;DHT22;65033;44.660;37.758;2022-12-17T02:59:12;27.42;42.99
75985;DHT22;65033;44.660;37.758;2022-12-17T03:00:40;27.41;42.97
75985;DHT22;65033;44.660;37.758;2022-12-17T03:02:03;27.42;42.97
75985;DHT22;65033;44.660;37.758;2022-12-17T03:03:24;27.43;42.93
75985;DHT22;65033;44.660;37.758;2022-12-17T03:04:50;27.41;42.93
75985;DHT22;65033;44.660;37.758;2022-12-17T03:06:24;27.41;42.93
75985;DHT22;65033;44.660;37.758;2022-12-17T03:07:46;27.42;42.90
75985;DHT22;65033;44.660;37.758;2022-12-17T03:09:07;27.41;42.90
75985;DHT22;65033;44.660;37.758;2022-12-17T03:10:29;27.41;42.88
75985;DHT22;65033;44.660;37.758;2022-12-17T03:11:51;27.41;42.84
75985;DHT22;65033;44.660;37.758;2022-12-17T03:13:22;27.41;42.80
75985;DHT22;65033;44.660;37.758;2022-12-17T03:14:44;27.41;42.81
75985;DHT22;65033;44.660;37.758;2022-12-17T03:16:10;27.42;42.81
75985;DHT22;65033;44.660;37.758;2022-12-17T03:17:35;27.42;42.81
75985;DHT22;65033;44.660;37.758;2022-12-17T03:18:58;27.42;42.79
75985;DHT22;65033;44.660;37.758;2022-12-17T03:20:20;27.41;42.76
75985;DHT22;65033;44.660;37.758;2022-12-17T03:21:42;27.41;42.75
75985;DHT22;65033;44.660;37.758;2022-12-17T03:23:04;27.42;42.73
75985;DHT22;65033;44.660;37.758;2022-12-17T03:24:26;27.41;42.71
75985;DHT22;65033;44.660;37.758;2022-12-17T03:25:47;27.41;42.71
75985;DHT22;65033;44.660;37.758;2022-12-17T03:27:09;27.41;42.65
75985;DHT22;65033;44.660;37.758;2022-12-17T03:28:32;27.41;42.63
75985;DHT22;65033;44.660;37.758;2022-12-17T03:29:54;27.41;42.61
75985;DHT22;65033;44.660;37.758;2022-12-17T03:31:16;27.41;42.58
75985;DHT22;65033;44.660;37.758;2022-12-17T03:32:37;27.42;42.58
75985;DHT22;65033;44.660;37.758;2022-12-17T03:33:59;27.41;42.57
75985;DHT22;65033;44.660;37.758;2022-12-17T03:35:21;27.41;42.55
75985;DHT22;65033;44.660;37.758;2022-12-17T03:36:54;27.41;42.55
75985;DHT22;65033;44.660;37.758;2022-12-17T03:38:15;27.40;42.54
75985;DHT22;65033;44.660;37.758;2022-12-17T03:39:37;27.42;42.50
75985;DHT22;65033;44.660;37.758;2022-12-17T03:40:59;27.43;42.49
75985;DHT22;65033;44.660;37.758;2022-12-17T03:42:20;27.41;42.48
75985;DHT22;65033;44.660;37.758;2022-12-17T03:43:44;27.42;42.45
75985;DHT22;65033;44.660;37.758;2022-12-17T03:45:06;27.42;42.45
75985;DHT22;65033;44.660;37.758;2022-12-17T03:46:28;27.42;42.45
75985;DHT22;65033;44.660;37.758;2022-12-17T03:47:50;27.41;42.44
75985;DHT22;65033;44.660;37.758;2022-12-17T03:49:12;27.43;42.39
75985;DHT22;65033;44.660;37.758;2022-12-17T03:50:40;27.42;42.34
75985;DHT22;65033;44.660;37.758;2022-12-17T03:52:02;27.42;42.37
75985;DHT22;65033;44.660;37.758;2022-12-17T03:53:24;27.42;42.36
75985;DHT22;65033;44.660;37.758;2022-12-17T03:54:45;27.40;42.33
75985;DHT22;65033;44.660;37.758;2022-12-17T03:56:07;27.40;42.32
75985;DHT22;65033;44.660;37.758;2022-12-17T03:57:28;27.41;42.29
75985;DHT22;65033;44.660;37.758;2022-12-17T03:58:52;27.41;42.23
75985;DHT22;65033;44.660;37.758;2022-12-17T04:00:14;27.42;42.21
75985;DHT22;65033;44.660;37.758;2022-12-17T04:01:36;27.40;42.22
75985;DHT22;65033;44.660;37.758;2022-12-17T04:02:58;27.41;42.22
75985;DHT22;65033;44.660;37.758;2022-12-17T04:04:20;27.40;42.22
75985;DHT22;65033;44.660;37.758;2022-12-17T04:05:42;27.39;42.22
75985;DHT22;65033;44.660;37.758;2022-12-17T04:07:04;27.40;42.19
75985;DHT22;65033;44.660;37.758;2022-12-17T04:08:25;27.40;42.17
75985;DHT22;65033;44.660;37.758;2022-12-17T04:09:47;27.40;42.14
75985;DHT22;65033;44.660;37.758;2022-12-17T04:11:08;27.41;42.13
75985;DHT22;65033;44.660;37.758;2022-12-17T04:12:30;27.40;42.11
75985;DHT22;65033;44.660;37.758;2022-12-17T04:13:53;27.41;42.08
75985;DHT22;65033;44.660;37.758;2022-12-17T04:15:15;27.41;42.05
75985;DHT22;65033;44.660;37.758;2022-12-17T04:16:37;27.40;42.03
75985;DHT22;65033;44.660;37.758;2022-12-17T04:17:59;27.40;42.03
75985;DHT22;65033;44.660;37.758;2022-12-17T04:19:22;27.40;42.03
75985;DHT22;65033;44.660;37.758;2022-12-17T04:20:46;27.41;41.99
75985;DHT22;65033;44.660;37.758;2022-12-17T04:22:08;27.41;42.02
75985;DHT22;65033;44.660;37.758;2022-12-17T04:23:29;27.39;42.00
75985;DHT22;65033;44.660;37.758;2022-12-17T04:24:52;27.40;41.99
75985;DHT22;65033;44.660;37.758;2022-12-17T04:26:13;27.40;41.98
75985;DHT22;65033;44.660;37.758;2022-12-17T04:27:35;27.40;41.98
75985;DHT22;65033;44.660;37.758;2022-12-17T04:29:00;27.40;41.94
75985;DHT22;65033;44.660;37.758;2022-12-17T04:30:22;27.42;41.94
75985;DHT22;65033;44.660;37.758;2022-12-17T04:31:44;27.40;41.92
75985;DHT22;65033;44.660;37.758;2022-12-17T04:33:05;27.40;41.92
75985;DHT22;65033;44.660;37.758;2022-12-17T04:34:27;27.41;41.90
75985;DHT22;65033;44.660;37.758;2022-12-17T04:35:49;27.41;41.86
75985;DHT22;65033;44.660;37.758;2022-12-17T04:37:10;27.40;41.87
75985;DHT22;65033;44.660;37.758;2022-12-17T04:38:32;27.41;41.85
75985;DHT22;65033;44.660;37.758;2022-12-17T04:39:53;27.41;41.85
75985;DHT22;65033;44.660;37.758;2022-12-17T04:41:15;27.40;41.85
75985;DHT22;65033;44.660;37.758;2022-12-17T04:42:36;27.40;41.82
75985;DHT22;65033;44.660;37.758;2022-12-17T04:44:00;27.42;41.82
75985;DHT22;65033;44.660;37.758;2022-12-17T04:45:21;27.41;41.79
75985;DHT22;65033;44.660;37.758;2022-12-17T04:46:43;27.40;41.78
75985;DHT22;65033;44.660;37.758;2022-12-17T04:48:06;27.40;41.82
75985;DHT22;65033;44.660;37.758;2022-12-17T04:49:28;27.40;41.79
75985;DHT22;65033;44.660;37.758;2022-12-17T04:50:49;27.40;41.80
75985;DHT22;65033;44.660;37.758;2022-12-17T04:52:12;27.41;41.78
75985;DHT22;65033;44.660;37.758;2022-12-17T04:53:33;27.40;41.79
75985;DHT22;65033;44.660;37.758;2022-12-17T04:54:55;27.40;41.78
75985;DHT22;65033;44.660;37.758;2022-12-17T04:56:21;27.40;41.75
75985;DHT22;65033;44.660;37.758;2022-12-17T04:57:44;27.41;41.74
75985;DHT22;65033;44.660;37.758;2022-12-17T04:59:07;27.42;41.73
75985;DHT22;65033;44.660;37.758;2022-12-17T05:00:36;27.42;41.71
75985;DHT22;65033;44.660;37.758;2022-12-17T05:01:59;27.41;41.71
75985;DHT22;65033;44.660;37.758;2022-12-17T05:03:21;27.40;41.70
75985;DHT22;65033;44.660;37.758;2022-12-17T05:04:43;27.41;41.68
75985;DHT22;65033;44.660;37.758;2022-12-17T05:06:05;27.40;41.67
75985;DHT22;65033;44.660;37.758;2022-12-17T05:07:26;27.40;41.65
75985;DHT22;65033;44.660;37.758;2022-12-17T05:08:48;27.40;41.67
75985;DHT22;65033;44.660;37.758;2022-12-17T05:10:10;27.40;41.66
75985;DHT22;65033;44.660;37.758;2022-12-17T05:11:31;27.40;41.65
75985;DHT22;65033;44.660;37.758;2022-12-17T05:12:57;27.40;41.60
75985;DHT22;65033;44.660;37.758;2022-12-17T05:14:20;27.39;41.61
75985;DHT22;65033;44.660;37.758;2022-12-17T05:15:42;27.40;41.61
75985;DHT22;65033;44.660;37.758;2022-12-17T05:17:03;27.39;41.58
75985;DHT22;65033;44.660;37.758;2022-12-17T05:18:25;27.39;41.59
75985;DHT22;65033;44.660;37.758;2022-12-17T05:19:47;27.40;41.59
75985;DHT22;65033;44.660;37.758;2022-12-17T05:21:09;27.39;41.59
75985;DHT22;65033;44.660;37.758;2022-12-17T05:22:33;27.39;41.60
75985;DHT22;65033;44.660;37.758;2022-12-17T05:23:55;27.38;41.62
75985;DHT22;65033;44.660;37.758;2022-12-17T05:25:17;27.40;41.61
75985;DHT22;65033;44.660;37.758;2022-12-17T05:26:38;27.40;41.58
75985;DHT22;65033;44.660;37.758;2022-12-17T05:28:00;27.39;41.58
75985;DHT22;65033;44.660;37.758;2022-12-17T05:29:23;27.40;41.55
75985;DHT22;65033;44.660;37.758;2022-12-17T05:30:56;27.39;41.55
75985;DHT22;65033;44.660;37.758;2022-12-17T05:32:17;27.39;41.55
75985;DHT22;65033;44.660;37.758;2022-12-17T05:33:39;27.41;41.52
75985;DHT22;65033;44.660;37.758;2022-12-17T05:35:01;27.42;41.51
75985;DHT22;65033;44.660;37.758;2022-12-17T05:36:23;27.40;41.51
75985;DHT22;65033;44.660;37.758;2022-12-17T05:37:45;27.40;41.51
75985;DHT22;65033;44.660;37.758;2022-12-17T05:39:06;27.40;41.51
75985;DHT22;65033;44.660;37.758;2022-12-17T05:40:28;27.40;41.50
75985;DHT22;65033;44.660;37.758;2022-12-17T05:41:50;27.40;41.51
75985;DHT22;65033;44.660;37.758;2022-12-17T05:43:12;27.39;41.52
75985;DHT22;65033;44.660;37.758;2022-12-17T05:44:35;27.40;41.51
75985;DHT22;65033;44.660;37.758;2022-12-17T05:45:58;27.40;41.50
75985;DHT22;65033;44.660;37.758;2022-12-17T05:47:20;27.40;41.50
75985;DHT22;65033;44.660;37.758;2022-12-17T05:48:42;27.39;41.50
75985;DHT22;65033;44.660;37.758;2022-12-17T05:50:04;27.40;41.52
75985;DHT22;65033;44.660;37.758;2022-12-17T05:51:29;27.41;41.49
75985;DHT22;65033;44.660;37.758;2022-12-17T05:52:51;27.39;41.49
75985;DHT22;65033;44.660;37.758;2022-12-17T05:54:13;27.40;41.49
75985;DHT22;65033;44.660;37.758;2022-12-17T05:55:35;27.41;41.49
75985;DHT22;65033;44.660;37.758;2022-12-17T05:56:59;27.40;41.49
75985;DHT22;65033;44.660;37.758;2022-12-17T05:58:34;27.40;41.48
75985;DHT22;65033;44.660;37.758;2022-12-17T05:59:57;27.41;41.46
75985;DHT22;65033;44.660;37.758;2022-12-17T06:01:20;27.41;41.43
75985;DHT22;65033;44.660;37.758;2022-12-17T06:02:42;27.40;41.45
75985;DHT22;65033;44.660;37.758;2022-12-17T06:04:04;27.40;41.44
75985;DHT22;65033;44.660;37.758;2022-12-17T06:05:26;27.40;41.42
75985;DHT22;65033;44.660;37.758;2022-12-17T06:06:47;27.41;41.41
75985;DHT22;65033;44.660;37.758;2022-12-17T06:08:09;27.41;41.41
75985;DHT22;65033;44.660;37.758;2022-12-17T06:09:31;27.41;41.39
75985;DHT22;65033;44.660;37.758;2022-12-17T06:10:56;27.40;41.39
75985;DHT22;65033;44.660;37.758;2022-12-17T06:12:18;27.40;41.40
75985;DHT22;65033;44.660;37.758;2022-12-17T06:13:40;27.40;41.40
75985;DHT22;65033;44.660;37.758;2022-12-17T06:15:04;27.40;41.36
75985;DHT22;65033;44.660;37.758;2022-12-17T06:16:26;27.40;41.37
75985;DHT22;65033;44.660;37.758;2022-12-17T06:17:52;27.41;41.35
75985;DHT22;65033;44.660;37.758;2022-12-17T06:19:18;27.42;41.33
75985;DHT22;65033;44.660;37.758;2022-12-17T06:20:40;27.41;41.33
75985;DHT22;65033;44.660;37.758;2022-12-17T06:22:02;27.42;41.30
75985;DHT22;65033;44.660;37.758;2022-12-17T06:23:23;27.40;41.31
75985;DHT22;65033;44.660;37.758;2022-12-17T06:24:45;27.42;41.33
75985;DHT22;65033;44.660;37.758;2022-12-17T06:26:06;27.41;41.30
75985;DHT22;65033;44.660;37.758;2022-12-17T06:27:28;27.41;41.30
75985;DHT22;65033;44.660;37.758;2022-12-17T06:28:50;27.41;41.28
75985;DHT22;65033;44.660;37.758;2022-12-17T06:30:13;27.41;41.29
75985;DHT22;65033;44.660;37.758;2022-12-17T06:31:35;27.40;41.27
75985;DHT22;65033;44.660;37.758;2022-12-17T06:33:03;27.41;41.26
75985;DHT22;65033;44.660;37.758;2022-12-17T06:34:25;27.39;41.28
75985;DHT22;65033;44.660;37.758;2022-12-17T06:35:47;27.41;41.26
75985;DHT22;65033;44.660;37.758;2022-12-17T06:37:09;27.40;41.26
75985;DHT22;65033;44.660;37.758;2022-12-17T06:38:30;27.40;41.26
75985;DHT22;65033;44.660;37.758;2022-12-17T06:39:52;27.40;41.27
75985;DHT22;65033;44.660;37.758;2022-12-17T06:41:14;27.40;41.26
75985;DHT22;65033;44.660;37.758;2022-12-17T06:42:35;27.40;41.26
75985;DHT22;65033;44.660;37.758;2022-12-17T06:43:57;27.41;41.26
75985;DHT22;65033;44.660;37.758;2022-12-17T06:45:21;27.41;41.26
75985;DHT22;65033;44.660;37.758;2022-12-17T06:46:43;27.41;41.26
75985;DHT22;65033;44.660;37.758;2022-12-17T06:48:06;27.40;41.25
75985;DHT22;65033;44.660;37.758;2022-12-17T06:49:28;27.41;41.25
75985;DHT22;65033;44.660;37.758;2022-12-17T06:50:50;27.42;41.23
75985;DHT22;65033;44.660;37.758;2022-12-17T06:52:13;27.42;41.22
75985;DHT22;65033;44.660;37.758;2022-12-17T06:53:35;27.41;41.21
75985;DHT22;65033;44.660;37.758;2022-12-17T06:54:57;27.41;41.22
75985;DHT22;65033;44.660;37.758;2022-12-17T06:56:19;27.42;41.23
75985;DHT22;65033;44.660;37.758;2022-12-17T06:57:40;27.41;41.23
75985;DHT22;65033;44.660;37.758;2022-12-17T06:59:02;27.42;41.23
75985;DHT22;65033;44.660;37.758;2022-12-17T07:00:25;27.41;41.23
75985;DHT22;65033;44.660;37.758;2022-12-17T07:01:48;27.41;41.24
75985;DHT22;65033;44.660;37.758;2022-12-17T07:03:10;27.41;41.23
75985;DHT22;65033;44.660;37.758;2022-12-17T07:04:32;27.41;41.23
75985;DHT22;65033;44.660;37.758;2022-12-17T07:05:53;27.42;41.22
75985;DHT22;65033;44.660;37.758;2022-12-17T07:07:15;27.41;41.24
75985;DHT22;65033;44.660;37.758;2022-12-17T07:08:37;27.40;41.25
75985;DHT22;65033;44.660;37.758;2022-12-17T07:09:59;27.42;41.22
75985;DHT22;65033;44.660;37.758;2022-12-17T07:11:20;27.41;41.21
75985;DHT22;65033;44.660;37.758;2022-12-17T07:12:42;27.41;41.23
75985;DHT22;65033;44.660;37.758;2022-12-17T07:14:04;27.41;41.20
75985;DHT22;65033;44.660;37.758;2022-12-17T07:15:37;27.41;41.22
75985;DHT22;65033;44.660;37.758;2022-12-17T07:16:59;27.43;41.20
75985;DHT22;65033;44.660;37.758;2022-12-17T07:18:21;27.41;41.20
75985;DHT22;65033;44.660;37.758;2022-12-17T07:19:43;27.42;41.21
75985;DHT22;65033;44.660;37.758;2022-12-17T07:21:05;27.42;41.21
75985;DHT22;65033;44.660;37.758;2022-12-17T07:22:27;27.42;41.23
75985;DHT22;65033;44.660;37.758;2022-12-17T07:23:48;27.41;41.22
75985;DHT22;65033;44.660;37.758;2022-12-17T07:25:10;27.42;41.22
75985;DHT22;65033;44.660;37.758;2022-12-17T07:26:32;27.42;41.21
75985;DHT22;65033;44.660;37.758;2022-12-17T07:27:53;27.42;41.20
75985;DHT22;65033;44.660;37.758;2022-12-17T07:29:15;27.43;41.20
75985;DHT22;65033;44.660;37.758;2022-12-17T07:30:38;27.44;41.17
75985;DHT22;65033;44.660;37.758;2022-12-17T07:32:00;27.43;41.19
75985;DHT22;65033;44.660;37.758;2022-12-17T07:33:22;27.44;41.18
75985;DHT22;65033;44.660;37.758;2022-12-17T07:34:44;27.43;41.18
75985;DHT22;65033;44.660;37.758;2022-12-17T07:36:06;27.44;41.18
75985;DHT22;65033;44.660;37.758;2022-12-17T07:37:28;27.44;41.16
75985;DHT22;65033;44.660;37.758;2022-12-17T07:38:49;27.46;41.15
75985;DHT22;65033;44.660;37.758;2022-12-17T07:40:11;27.46;41.13
75985;DHT22;65033;44.660;37.758;2022-12-17T07:41:33;27.47;41.13
75985;DHT22;65033;44.660;37.758;2022-12-17T07:42:56;27.45;41.13
75985;DHT22;65033;44.660;37.758;2022-12-17T07:44:18;27.46;41.12
75985;DHT22;65033;44.660;37.758;2022-12-17T07:45:41;27.49;41.12
75985;DHT22;65033;44.660;37.758;2022-12-17T07:47:03;27.49;41.10
75985;DHT22;65033;44.660;37.758;2022-12-17T07:48:24;27.47;41.10
75985;DHT22;65033;44.660;37.758;2022-12-17T07:49:46;27.47;41.09
75985;DHT22;65033;44.660;37.758;2022-12-17T07:51:08;27.49;41.07
75985;DHT22;65033;44.660;37.758;2022-12-17T07:52:30;27.47;41.08
75985;DHT22;65033;44.660;37.758;2022-12-17T07:53:52;27.49;41.06
75985;DHT22;65033;44.660;37.758;2022-12-17T07:55:14;27.49;41.27
75985;DHT22;65033;44.660;37.758;2022-12-17T07:56:36;27.49;41.65
75985;DHT22;65033;44.660;37.758;2022-12-17T07:57:58;27.49;41.48
75985;DHT22;65033;44.660;37.758;2022-12-17T07:59:20;27.51;41.38
75985;DHT22;65033;44.660;37.758;2022-12-17T08:00:43;27.51;41.34
75985;DHT22;65033;44.660;37.758;2022-12-17T08:02:07;27.52;41.32
75985;DHT22;65033;44.660;37.758;2022-12-17T08:03:30;27.54;41.29
75985;DHT22;65033;44.660;37.758;2022-12-17T08:04:52;27.55;41.25
75985;DHT22;65033;44.660;37.758;2022-12-17T08:06:13;27.55;41.21
75985;DHT22;65033;44.660;37.758;2022-12-17T08:07:35;27.55;41.20
75985;DHT22;65033;44.660;37.758;2022-12-17T08:08:57;27.55;41.20
75985;DHT22;65033;44.660;37.758;2022-12-17T08:10:19;27.56;41.18
75985;DHT22;65033;44.660;37.758;2022-12-17T08:11:44;27.56;41.15
75985;DHT22;65033;44.660;37.758;2022-12-17T08:13:06;27.55;41.14
75985;DHT22;65033;44.660;37.758;2022-12-17T08:14:27;27.58;41.14
75985;DHT22;65033;44.660;37.758;2022-12-17T08:15:51;27.55;41.13
75985;DHT22;65033;44.660;37.758;2022-12-17T08:17:14;27.57;41.12
75985;DHT22;65033;44.660;37.758;2022-12-17T08:18:36;27.55;41.13
75985;DHT22;65033;44.660;37.758;2022-12-17T08:19:58;27.55;41.13
75985;DHT22;65033;44.660;37.758;2022-12-17T08:21:20;27.55;41.13
75985;DHT22;65033;44.660;37.758;2022-12-17T08:22:41;27.55;41.10
75985;DHT22;65033;44.660;37.758;2022-12-17T08:24:03;27.54;41.12
75985;DHT22;65033;44.660;37.758;2022-12-17T08:25:25;27.55;41.10
75985;DHT22;65033;44.660;37.758;2022-12-17T08:26:47;27.54;41.11
75985;DHT22;65033;44.660;37.758;2022-12-17T08:28:08;27.54;41.10
75985;DHT22;65033;44.660;37.758;2022-12-17T08:29:50;27.53;41.12
75985;DHT22;65033;44.660;37.758;2022-12-17T08:31:14;27.54;41.11
75985;DHT22;65033;44.660;37.758;2022-12-17T08:32:35;27.53;41.11
75985;DHT22;65033;44.660;37.758;2022-12-17T08:33:57;27.53;41.11
75985;DHT22;65033;44.660;37.758;2022-12-17T08:35:19;27.52;41.10
75985;DHT22;65033;44.660;37.758;2022-12-17T08:36:55;27.52;41.13